Time;durP1;ratioP1;P1;durP2;ratioP2;P2;SDS_P1;SDS_P2;PMS_P1;PMS_P2;Temp;Humidity;BMP_temperature;BMP_pressure;BME280_temperature;BME280_humidity;BME280_pressure;Samples;Min_cycle;Max_cycle;Signal;HPM_P1;HPM_P2
2022/05/24 00:00:34;;;;;;;;;;;;;10.10;97044.20;;;;110883;1251;41158;-71
2022/05/24 00:03:04;;;;;;;8.60;3.10;;;;;9.98;97041.20;;;;110687;1252;41151;-73
2022/05/24 00:05:37;;;;;;;6.70;2.60;;;;;9.90;97040.40;;;;110949;1252;41732;-72
2022/05/24 00:08:08;;;;;;;6.80;2.70;;;;;9.90;97042.60;;;;110836;1252;41156;-72
2022/05/24 00:10:40;;;;;;;7.60;2.70;;;;;9.90;97045.00;;;;110653;1253;41663;-73
2022/05/24 00:13:11;;;;;;;7.30;2.70;;;;;9.88;97040.40;;;;110960;1250;41149;-74
2022/05/24 00:15:41;;;;;;;6.90;2.70;;;;;9.80;97045.80;;;;110656;1252;41557;-71
2022/05/24 00:18:17;;;;;;;8.80;3.10;;;;;9.80;97044.60;;;;110722;1253;41190;-78
2022/05/24 00:20:53;;;;;;;6.60;2.50;;;;;9.80;97039.60;;;;110631;1253;42540;-72
2022/05/24 00:23:27;;;;;;;7.90;2.90;;;;;9.70;97039.80;;;;110706;1253;42099;-72
2022/05/24 00:26:00;;;;;;;6.20;2.70;;;;;9.70;97036.80;;;;110709;1250;42406;-73
2022/05/24 00:28:31;;;;;;;10.70;3.60;;;;;9.70;97034.00;;;;110686;1253;41160;-73
2022/05/24 00:31:02;;;;;;;8.60;3.60;;;;;9.60;97032.20;;;;110712;1252;41164;-73
2022/05/24 00:33:33;;;;;;;;;;;;;9.50;97042.40;;;;110683;1252;41281;-72
2022/05/24 00:36:03;;;;;;;8.60;3.50;;;;;9.40;97048.00;;;;110699;1251;41671;-72
2022/05/24 00:38:36;;;;;;;7.20;3.10;;;;;9.34;97053.60;;;;110749;1253;40902;-72
2022/05/24 00:41:26;;;;;;;6.80;2.60;;;;;9.30;97051.20;;;;110680;1252;41159;-72
2022/05/24 00:44:14;;;;;;;7.70;2.70;;;;;9.30;97057.80;;;;110699;1253;41645;-72
2022/05/24 00:47:04;;;;;;;8.10;2.90;;;;;9.30;97057.80;;;;110835;1252;41294;-71
2022/05/24 00:49:40;;;;;;;7.80;2.70;;;;;9.30;97059.60;;;;110910;1250;41157;-72
2022/05/24 00:52:14;;;;;;;8.10;3.40;;;;;9.22;97063.80;;;;110860;1252;41121;-72
2022/05/24 00:54:50;;;;;;;7.80;3.40;;;;;9.20;97060.00;;;;110717;1251;41147;-73
2022/05/24 00:57:32;;;;;;;7.70;2.90;;;;;9.20;97054.40;;;;110781;1252;41157;-71
2022/05/24 01:00:01;;;;;;;8.20;2.40;;;;;9.20;97051.20;;;;110855;1251;41814;-71
2022/05/24 01:02:33;;;;;;;8.40;2.90;;;;;9.20;97057.00;;;;110868;1253;41594;-77
2022/05/24 01:05:08;;;;;;;9.30;3.70;;;;;9.10;97050.40;;;;110991;1249;41152;-72
2022/05/24 01:07:41;;;;;;;8.10;3.00;;;;;9.10;97043.60;;;;110706;1253;41382;-75
2022/05/24 01:10:33;;;;;;;7.80;3.20;;;;;9.10;97043.80;;;;110525;1254;41149;-76
2022/05/24 01:13:12;;;;;;;10.20;3.30;;;;;9.00;97044.60;;;;110872;1251;42377;-76
2022/05/24 01:15:44;;;;;;;10.20;3.70;;;;;9.00;97050.00;;;;110839;1252;41267;-76
2022/05/24 01:18:14;;;;;;;9.00;3.70;;;;;8.90;97046.60;;;;110901;1250;41637;-76
2022/05/24 01:20:47;;;;;;;7.40;3.20;;;;;8.70;97049.20;;;;110695;1250;41194;-80
2022/05/24 01:23:36;;;;;;;7.50;3.30;;;;;8.68;97046.80;;;;110898;1252;41701;-79
2022/05/24 01:26:46;;;;;;;8.20;3.10;;;;;8.68;97042.00;;;;110804;1253;41507;-74
2022/05/24 01:29:20;;;;;;;6.00;2.60;;;;;8.60;97043.60;;;;110747;1250;41329;-75
2022/05/24 01:37:31;;;;;;;8.50;3.20;;;;;8.60;97037.40;;;;110769;1253;41642;-73
2022/05/24 01:40:07;;;;;;;12.60;3.40;;;;;8.60;97038.80;;;;110936;1251;41433;-75
2022/05/24 01:42:40;;;;;;;10.20;3.70;;;;;8.60;97037.60;;;;110924;1250;41927;-72
2022/05/24 01:45:23;;;;;;;8.70;3.30;;;;;8.50;97033.80;;;;110796;1250;41344;-73
2022/05/24 01:47:59;;;;;;;8.70;3.80;;;;;8.40;97042.40;;;;110685;1253;41282;-75
2022/05/24 01:50:31;;;;;;;9.20;3.60;;;;;8.40;97035.60;;;;110913;1250;41152;-77
2022/05/24 01:53:16;;;;;;;8.30;3.40;;;;;8.30;97032.20;;;;110940;1250;41942;-75
2022/05/24 01:55:51;;;;;;;8.40;3.70;;;;;8.30;97033.20;;;;110755;1253;41154;-77
2022/05/24 01:58:23;;;;;;;10.30;4.10;;;;;8.30;97033.00;;;;110894;1251;41273;-76
2022/05/24 02:01:02;;;;;;;9.10;3.20;;;;;8.30;97037.40;;;;110828;1251;41157;-77
2022/05/24 02:03:40;;;;;;;10.30;3.50;;;;;8.30;97038.40;;;;110727;1253;42234;-75
2022/05/24 02:06:25;;;;;;;8.80;3.30;;;;;8.20;97037.80;;;;110569;1255;42330;-76
2022/05/24 02:08:55;;;;;;;7.30;3.10;;;;;8.20;97037.40;;;;110783;1252;41165;-75
2022/05/24 02:11:31;;;;;;;11.00;4.00;;;;;8.20;97037.00;;;;110783;1250;42020;-78
2022/05/24 02:14:18;;;;;;;8.80;3.30;;;;;8.10;97034.40;;;;110660;1254;41432;-76
2022/05/24 02:17:02;;;;;;;6.70;3.00;;;;;8.10;97035.40;;;;110901;1250;41141;-77
2022/05/24 02:19:36;;;;;;;8.80;3.20;;;;;8.10;97032.60;;;;110689;1253;41715;-75
2022/05/24 02:22:10;;;;;;;7.00;2.60;;;;;8.10;97029.00;;;;110812;1252;41146;-73
2022/05/24 02:24:40;;;;;;;7.40;3.00;;;;;8.10;97032.80;;;;110865;1252;41410;-73
2022/05/24 02:27:11;;;;;;;6.60;2.40;;;;;8.10;97032.80;;;;110832;1252;41258;-73
2022/05/24 02:29:42;;;;;;;5.30;2.40;;;;;8.10;97039.20;;;;110659;1253;41269;-76
2022/05/24 02:32:12;;;;;;;7.20;2.70;;;;;8.10;97040.00;;;;110717;1253;41150;-76
2022/05/24 02:34:42;;;;;;;5.70;2.40;;;;;8.10;97044.60;;;;110860;1252;41542;-76
2022/05/24 02:37:13;;;;;;;;;;;;;8.10;97042.80;;;;110866;1251;41801;-73
2022/05/24 02:42:32;;;;;;;10.60;3.10;;;;;8.00;97037.00;;;;110758;1253;42113;-77
2022/05/24 02:45:01;;;;;;;7.70;2.90;;;;;8.06;97039.20;;;;110742;1253;41402;-71
2022/05/24 02:47:31;;;;;;;6.40;2.70;;;;;8.10;97042.00;;;;110739;1253;41412;-76
2022/05/24 02:50:00;;;;;;;6.40;2.60;;;;;8.10;97044.60;;;;110803;1252;41762;-77
2022/05/24 02:52:43;;;;;;;7.10;3.00;;;;;8.10;97032.20;;;;110693;1253;41978;-76
2022/05/24 02:55:14;;;;;;;8.50;3.40;;;;;8.12;97031.40;;;;110782;1252;41276;-76
2022/05/24 02:57:44;;;;;;;8.70;3.40;;;;;8.20;97038.60;;;;110699;1253;41727;-75
2022/05/24 03:00:17;;;;;;;7.30;3.10;;;;;8.20;97033.60;;;;110630;1253;41160;-75
2022/05/24 03:02:49;;;;;;;6.60;2.80;;;;;8.20;97032.80;;;;110667;1254;41164;-75
2022/05/24 03:05:23;;;;;;;7.20;2.90;;;;;8.20;97033.40;;;;110574;1254;41165;-76
2022/05/24 03:10:41;;;;;;;6.60;2.70;;;;;8.20;97033.00;;;;110763;1253;41046;-75
2022/05/24 03:15:59;;;;;;;6.20;2.50;;;;;8.30;97033.20;;;;110864;1252;41417;-76
2022/05/24 03:18:32;;;;;;;7.80;2.90;;;;;8.36;97034.40;;;;110680;1253;41428;-76
2022/05/24 03:21:02;;;;;;;6.60;2.80;;;;;8.40;97032.00;;;;110682;1253;41154;-78
2022/05/24 03:23:33;;;;;;;6.80;2.80;;;;;8.40;97032.00;;;;110902;1252;41933;-70
2022/05/24 03:26:04;;;;;;;6.70;2.60;;;;;8.48;97030.60;;;;110793;1253;41203;-78
2022/05/24 03:28:34;;;;;;;8.60;2.50;;;;;8.50;97023.80;;;;110831;1253;41936;-77
2022/05/24 03:31:07;;;;;;;6.60;2.40;;;;;8.60;97020.80;;;;110691;1253;41184;-73
2022/05/24 03:33:39;;;;;;;7.80;3.10;;;;;8.62;97017.20;;;;110544;1250;41162;-74
2022/05/24 03:36:08;;;;;;;6.80;3.00;;;;;8.70;97019.40;;;;110704;1251;41140;-75
2022/05/24 03:38:41;;;;;;;11.80;3.80;;;;;8.78;97023.40;;;;110850;1251;41572;-78
2022/05/24 03:41:13;;;;;;;8.90;3.10;;;;;8.80;97021.60;;;;110705;1253;41837;-75
2022/05/24 03:43:43;;;;;;;9.10;2.90;;;;;8.90;97021.80;;;;110726;1253;41934;-74
2022/05/24 03:46:14;;;;;;;7.20;2.60;;;;;8.98;97024.00;;;;110936;1251;41159;-77
2022/05/24 03:48:47;;;;;;;7.30;2.80;;;;;9.10;97021.60;;;;110831;1253;41411;-75
2022/05/24 03:51:18;;;;;;;;;;;;;9.14;97026.20;;;;110785;1253;42177;-75
2022/05/24 03:53:47;;;;;;;8.90;3.90;;;;;9.20;97031.00;;;;110854;1252;41144;-74
2022/05/24 03:56:16;;;;;;;11.00;3.60;;;;;9.20;97028.40;;;;110762;1253;41165;-73
2022/05/24 03:58:45;;;;;;;8.80;3.50;;;;;9.30;97029.80;;;;110802;1253;41157;-76
2022/05/24 04:01:14;;;;;;;7.70;2.80;;;;;9.40;97030.20;;;;110838;1251;41155;-72
2022/05/24 04:03:45;;;;;;;11.50;3.80;;;;;9.52;97025.20;;;;110830;1250;41452;-75
2022/05/24 04:06:14;;;;;;;5.90;2.60;;;;;9.80;97024.20;;;;110769;1253;41727;-72
2022/05/24 04:08:45;;;;;;;7.40;2.80;;;;;10.54;97005.20;;;;110832;1253;41155;-74
2022/05/24 04:11:14;;;;;;;8.20;3.00;;;;;11.78;96989.40;;;;110700;1253;41088;-72
2022/05/24 04:13:45;;;;;;;7.90;2.80;;;;;13.00;96978.40;;;;110772;1253;41907;-74
2022/05/24 04:16:15;;;;;;;9.40;3.50;;;;;14.08;96979.60;;;;110810;1252;41671;-72
2022/05/24 04:18:44;;;;;;;8.60;3.60;;;;;14.90;96978.00;;;;110798;1252;42548;-72
2022/05/24 04:21:16;;;;;;;13.30;3.60;;;;;15.50;96972.60;;;;110887;1251;42272;-75
2022/05/24 04:23:45;;;;;;;9.20;3.30;;;;;16.20;96975.20;;;;110811;1250;41385;-73
2022/05/24 04:26:14;;;;;;;9.00;3.10;;;;;16.86;96974.80;;;;110654;1253;41158;-74
2022/05/24 04:28:43;;;;;;;8.80;3.50;;;;;17.40;96967.20;;;;110993;1252;41152;-74
2022/05/24 04:31:12;;;;;;;7.20;3.10;;;;;17.72;96969.40;;;;110883;1250;41636;-75
2022/05/24 04:33:41;;;;;;;10.80;3.10;;;;;18.00;96967.00;;;;110736;1250;41639;-72
2022/05/24 04:36:11;;;;;;;7.10;2.90;;;;;18.20;96975.60;;;;110715;1250;41214;-72
2022/05/24 04:38:40;;;;;;;7.20;2.90;;;;;18.42;96974.40;;;;110689;1253;41159;-74
2022/05/24 04:43:57;;;;;;;8.40;3.50;;;;;18.80;96976.00;;;;110728;1252;40885;-74
2022/05/24 04:47:06;;;;;;;8.80;3.10;;;;;18.88;96973.60;;;;110702;1250;41204;-69
2022/05/24 04:49:15;;;;;;;7.60;3.10;;;;;18.90;96980.40;;;;110654;1253;41152;-77
2022/05/24 04:51:44;;;;;;;9.50;3.60;;;;;19.20;96983.80;;;;110812;1253;41162;-70
2022/05/24 04:54:14;;;;;;;9.40;2.90;;;;;19.30;96991.20;;;;110700;1253;41597;-70
2022/05/24 04:56:43;;;;;;;13.40;3.10;;;;;19.50;96990.00;;;;110692;1250;41152;-74
2022/05/24 04:59:13;;;;;;;11.20;2.90;;;;;19.64;96990.20;;;;110685;1253;41944;-75
2022/05/24 05:01:44;;;;;;;7.10;2.50;;;;;20.08;96993.00;;;;110699;1253;41621;-76
2022/05/24 05:04:12;;;;;;;5.50;2.30;;;;;20.74;96983.60;;;;110898;1253;41631;-76
2022/05/24 05:06:46;;;;;;;6.60;2.20;;;;;21.30;96989.20;;;;110696;1253;41274;-72
2022/05/24 05:09:15;;;;;;;9.90;2.50;;;;;21.70;96988.80;;;;110818;1253;41272;-77
2022/05/24 05:11:44;;;;;;;6.00;2.30;;;;;22.10;96987.40;;;;110686;1253;41139;-75
2022/05/24 05:14:16;;;;;;;6.60;2.20;;;;;22.42;96989.80;;;;110837;1251;41146;-76
2022/05/24 05:16:45;;;;;;;8.30;2.50;;;;;22.80;96992.00;;;;110607;1253;41978;-78
2022/05/24 05:19:14;;;;;;;5.00;2.20;;;;;23.10;96990.60;;;;110757;1253;41143;-78
2022/05/24 05:21:43;;;;;;;7.50;2.20;;;;;23.30;96997.60;;;;110689;1253;41323;-71
2022/05/24 05:24:12;;;;;;;6.30;2.30;;;;;23.60;96992.40;;;;110764;1253;41261;-77
2022/05/24 05:26:41;;;;;;;4.40;2.10;;;;;23.50;96994.20;;;;110683;1253;41159;-75
2022/05/24 05:29:10;;;;;;;5.40;2.00;;;;;23.36;97005.80;;;;110631;1252;41609;-77
2022/05/24 05:31:39;;;;;;;5.50;2.10;;;;;22.94;97030.80;;;;110600;1251;41726;-78
2022/05/24 05:34:08;;;;;;;9.30;2.80;;;;;22.12;97037.80;;;;110664;1253;41255;-71
2022/05/24 05:36:37;;;;;;;4.20;2.00;;;;;21.38;97043.20;;;;110779;1252;41159;-72
2022/05/24 05:39:06;;;;;;;6.30;2.50;;;;;21.54;97026.60;;;;110684;1253;41145;-70
2022/05/24 05:41:35;;;;;;;5.20;2.00;;;;;22.00;97019.40;;;;110764;1253;41136;-71
2022/05/24 05:44:04;;;;;;;5.90;2.30;;;;;22.64;97018.60;;;;110764;1253;41607;-71
2022/05/24 05:46:33;;;;;;;8.90;2.10;;;;;22.90;97022.20;;;;110667;1253;41702;-69
2022/05/24 05:49:02;;;;;;;3.60;1.70;;;;;23.20;97021.60;;;;110659;1254;41271;-69
2022/05/24 05:51:33;;;;;;;;;;;;;23.50;97027.20;;;;110793;1252;41944;-70
2022/05/24 05:54:02;;;;;;;5.30;2.20;;;;;23.66;97018.40;;;;110725;1251;41261;-71
2022/05/24 05:56:32;;;;;;;8.20;2.30;;;;;23.70;97021.80;;;;110681;1252;41118;-75
2022/05/24 05:59:01;;;;;;;6.30;1.80;;;;;23.52;97029.80;;;;110667;1253;41168;-75
2022/05/24 06:01:31;;;;;;;5.00;2.10;;;;;23.10;97031.20;;;;110747;1253;41390;-74
2022/05/24 06:04:00;;;;;;;6.60;2.20;;;;;22.54;97036.60;;;;110862;1252;41131;-71
2022/05/24 06:06:34;;;;;;;4.10;1.80;;;;;22.16;97036.60;;;;110614;1253;41950;-69
2022/05/24 06:09:03;;;;;;;5.30;1.90;;;;;21.90;97036.40;;;;110807;1251;41142;-73
2022/05/24 06:11:33;;;;;;;4.40;2.00;;;;;22.20;97037.80;;;;110752;1253;42364;-73
2022/05/24 06:14:02;;;;;;;7.80;2.80;;;;;22.50;97034.40;;;;110640;1253;42416;-75
2022/05/24 06:16:34;;;;;;;6.40;2.40;;;;;22.50;97031.00;;;;110826;1253;41157;-71
2022/05/24 06:19:05;;;;;;;6.90;2.30;;;;;22.50;97030.40;;;;110706;1253;42530;-71
2022/05/24 06:21:34;;;;;;;5.50;2.20;;;;;22.90;97035.40;;;;110777;1253;41161;-73
2022/05/24 06:24:05;;;;;;;5.20;2.20;;;;;23.08;97032.80;;;;110616;1253;41267;-69
2022/05/24 06:26:34;;;;;;;5.00;2.00;;;;;23.02;97034.20;;;;110247;1255;527127;-70
2022/05/24 06:29:05;;;;;;;8.00;2.50;;;;;23.70;97037.20;;;;110694;1253;41139;-75
2022/05/24 06:31:34;;;;;;;5.80;2.10;;;;;24.04;97033.80;;;;110805;1253;42155;-76
2022/05/24 06:34:03;;;;;;;5.90;2.10;;;;;24.74;97027.80;;;;110827;1253;41294;-77
2022/05/24 06:36:32;;;;;;;4.20;1.70;;;;;25.56;97023.60;;;;110842;1251;41963;-70
2022/05/24 06:39:02;;;;;;;4.40;1.80;;;;;26.22;97021.40;;;;110816;1251;41168;-74
2022/05/24 06:41:31;;;;;;;4.20;1.90;;;;;27.06;97018.40;;;;110683;1253;41159;-76
2022/05/24 06:44:00;;;;;;;4.30;1.90;;;;;27.54;97016.40;;;;110737;1253;41150;-76
2022/05/24 06:46:31;;;;;;;3.00;1.60;;;;;27.72;97011.40;;;;110691;1250;41626;-71
2022/05/24 06:49:00;;;;;;;6.00;2.10;;;;;27.14;97010.60;;;;110878;1251;41501;-74
2022/05/24 06:51:29;;;;;;;4.70;2.10;;;;;27.34;97017.40;;;;110662;1253;41164;-70
2022/05/24 06:53:58;;;;;;;5.50;2.00;;;;;27.70;97010.60;;;;110821;1253;41380;-69
2022/05/24 06:56:27;;;;;;;5.70;2.10;;;;;28.00;97015.80;;;;110861;1253;41140;-76
2022/05/24 07:04:31;;;;;;;5.50;2.30;;;;;24.82;97029.40;;;;110693;1253;41945;-78
2022/05/24 07:07:00;;;;;;;5.90;2.10;;;;;24.44;97036.40;;;;110931;1251;41156;-77
2022/05/24 07:09:31;;;;;;;4.80;2.10;;;;;23.92;97039.40;;;;110827;1253;42409;-73
2022/05/24 07:12:01;;;;;;;3.20;1.70;;;;;23.20;97041.40;;;;110740;1253;41168;-76
2022/05/24 07:14:33;;;;;;;4.00;1.80;;;;;23.00;97038.60;;;;110810;1252;41377;-75
2022/05/24 07:17:02;;;;;;;5.00;1.90;;;;;22.80;97040.40;;;;110932;1251;41706;-77
2022/05/24 07:19:32;;;;;;;5.90;2.20;;;;;22.66;97036.80;;;;110947;1251;41712;-82
2022/05/24 07:22:01;;;;;;;8.90;2.00;;;;;22.20;97041.80;;;;110945;1251;41169;-79
2022/05/24 07:24:31;;;;;;;4.90;2.10;;;;;21.80;97045.00;;;;110792;1253;42269;-77
2022/05/24 07:27:01;;;;;;;6.30;2.50;;;;;21.50;97045.60;;;;110882;1251;41615;-77
2022/05/24 07:29:34;;;;;;;7.30;2.60;;;;;21.34;97049.60;;;;110918;1250;41254;-75
2022/05/24 07:32:04;;;;;;;6.20;2.20;;;;;21.02;97049.20;;;;110745;1253;41464;-75
2022/05/24 07:34:35;;;;;;;4.50;1.80;;;;;20.90;97050.80;;;;110845;1251;41199;-76
2022/05/24 07:37:06;;;;;;;4.70;2.10;;;;;21.10;97046.80;;;;110761;1253;41732;-74
2022/05/24 07:39:35;;;;;;;5.80;2.30;;;;;21.26;97049.80;;;;110774;1254;41217;-71
2022/05/24 07:47:43;;;;;;;6.90;2.20;;;;;22.00;97044.80;;;;110687;1254;41184;-70
2022/05/24 07:50:12;;;;;;;5.20;1.80;;;;;22.24;97044.00;;;;110679;1254;41265;-69
2022/05/24 07:52:41;;;;;;;5.50;2.20;;;;;22.60;97044.00;;;;110786;1251;41498;-70
2022/05/24 07:55:11;;;;;;;6.80;2.50;;;;;22.80;97043.00;;;;110846;1252;42370;-70
2022/05/24 07:57:40;;;;;;;5.70;2.00;;;;;22.80;97045.20;;;;110503;1253;41624;-69
2022/05/24 08:00:09;;;;;;;5.30;2.00;;;;;22.78;97046.80;;;;110713;1252;40851;-74
2022/05/24 08:02:41;;;;;;;6.20;2.30;;;;;23.00;97048.40;;;;110695;1254;41147;-71
2022/05/24 08:05:10;;;;;;;4.30;1.90;;;;;23.10;97045.40;;;;110536;1253;41736;-72
2022/05/24 08:07:39;;;;;;;4.80;1.80;;;;;23.50;97046.40;;;;110588;1254;41189;-72
2022/05/24 08:10:08;;;;;;;6.10;2.20;;;;;23.90;97042.80;;;;110711;1254;41380;-72
2022/05/24 08:12:44;;;;;;;6.10;2.10;;;;;24.14;97040.40;;;;110704;1254;41390;-71
2022/05/24 08:15:14;;;;;;;5.00;2.00;;;;;24.20;97035.00;;;;110469;1253;41156;-74
2022/05/24 08:17:43;;;;;;;4.50;1.70;;;;;24.10;97033.00;;;;110440;1253;41265;-72
2022/05/24 08:20:13;;;;;;;6.00;2.10;;;;;24.20;97028.40;;;;110692;1251;41847;-72
2022/05/24 08:22:42;;;;;;;4.60;1.70;;;;;24.24;97021.40;;;;110557;1254;41728;-71
2022/05/24 08:25:12;;;;;;;5.80;1.80;;;;;24.10;97022.20;;;;110811;1253;41186;-70
2022/05/24 08:27:42;;;;;;;3.60;1.50;;;;;24.08;97016.40;;;;110695;1253;42466;-71
2022/05/24 08:30:14;;;;;;;4.10;1.60;;;;;24.10;97017.40;;;;110852;1251;41982;-69
2022/05/24 08:32:44;;;;;;;4.60;1.80;;;;;24.38;97011.80;;;;110648;1252;41261;-68
2022/05/24 08:35:14;;;;;;;5.70;2.00;;;;;25.06;97011.80;;;;110704;1253;41157;-69
2022/05/24 08:37:44;;;;;;;3.90;1.50;;;;;25.20;97010.20;;;;110778;1253;42263;-69
2022/05/24 08:40:16;;;;;;;5.10;1.80;;;;;25.42;97006.00;;;;110644;1254;41139;-69
2022/05/24 08:43:06;;;;;;;4.30;1.90;;;;;25.96;97002.00;;;;110673;1254;41268;-72
2022/05/24 08:48:58;;;;;;;3.30;1.50;;;;;27.62;96996.80;;;;110810;1253;41946;-73
2022/05/24 08:51:38;;;;;;;4.60;1.60;;;;;28.18;96981.20;;;;110659;1254;41213;-73
2022/05/24 08:54:15;;;;;;;3.60;1.50;;;;;28.10;96972.40;;;;110717;1253;42450;-70
2022/05/24 08:56:46;;;;;;;3.50;1.60;;;;;28.20;96977.00;;;;110681;1254;41153;-71
2022/05/24 08:59:19;;;;;;;3.20;1.50;;;;;28.54;96974.20;;;;110696;1254;41606;-73
2022/05/24 09:01:48;;;;;;;4.70;1.80;;;;;29.26;96968.20;;;;110708;1252;42018;-71
2022/05/24 09:04:17;;;;;;;5.40;1.60;;;;;29.60;96959.80;;;;110671;1253;41268;-72
2022/05/24 09:06:51;;;;;;;3.60;1.40;;;;;29.10;96970.00;;;;110612;1253;42151;-75
2022/05/24 09:09:44;;;;;;;4.80;1.80;;;;;29.28;96963.20;;;;110646;1254;41644;-76
2022/05/24 09:12:44;;;;;;;3.70;1.50;;;;;28.84;96955.40;;;;110785;1253;41149;-76
2022/05/24 09:15:35;;;;;;;6.10;2.10;;;;;28.72;96954.20;;;;110791;1251;41282;-72
2022/05/24 09:18:22;;;;;;;;;;;;;27.86;96958.80;;;;110642;1254;41148;-71
2022/05/24 09:20:51;;;;;;;3.40;1.50;;;;;28.04;96957.80;;;;110784;1253;42115;-74
2022/05/24 09:23:31;;;;;;;4.40;1.50;;;;;28.30;96957.20;;;;110714;1254;41318;-76
2022/05/24 09:26:02;;;;;;;;;;;;;28.48;96956.00;;;;110714;1253;41150;-74
2022/05/24 09:28:49;;;;;;;5.40;1.50;;;;;28.60;96957.80;;;;110673;1253;41158;-74
2022/05/24 09:31:36;;;;;;;4.10;1.70;;;;;28.60;96957.80;;;;110689;1253;41162;-76
2022/05/24 09:34:10;;;;;;;3.90;1.80;;;;;28.64;96957.00;;;;110869;1251;41626;-77
2022/05/24 09:36:42;;;;;;;5.80;1.60;;;;;28.10;96952.20;;;;110886;1253;41614;-77
2022/05/24 09:39:25;;;;;;;3.30;1.60;;;;;28.20;96955.80;;;;110677;1254;41187;-74
2022/05/24 09:42:06;;;;;;;6.10;1.80;;;;;27.40;96960.20;;;;110801;1251;41371;-78
2022/05/24 09:44:47;;;;;;;2.60;1.60;;;;;26.70;96958.60;;;;110875;1253;41164;-78
2022/05/24 09:47:26;;;;;;;2.70;1.40;;;;;27.00;96958.40;;;;110801;1252;41603;-69
2022/05/24 09:50:21;;;;;;;3.30;1.50;;;;;27.56;96954.60;;;;110864;1251;41256;-76
2022/05/24 09:53:02;;;;;;;4.10;1.50;;;;;28.66;96944.40;;;;110881;1251;41817;-69
2022/05/24 09:56:03;;;;;;;4.60;1.90;;;;;29.66;96948.60;;;;110863;1251;40749;-75
2022/05/24 09:58:50;;;;;;;3.20;1.60;;;;;29.64;96935.80;;;;110870;1252;41246;-74
2022/05/24 10:01:35;;;;;;;3.80;1.50;;;;;28.70;96937.40;;;;110884;1251;41327;-71
2022/05/24 10:04:25;;;;;;;5.30;1.90;;;;;28.94;96937.40;;;;110886;1251;41604;-72
2022/05/24 10:06:56;;;;;;;4.30;1.50;;;;;29.14;96931.20;;;;110876;1253;41170;-75
2022/05/24 10:09:43;;;;;;;3.00;1.50;;;;;28.84;96929.80;;;;110905;1252;41878;-76
2022/05/24 10:12:37;;;;;;;5.70;1.50;;;;;29.00;96925.00;;;;110663;1254;41199;-73
2022/05/24 10:15:15;;;;;;;3.60;1.70;;;;;29.00;96930.80;;;;110660;1253;42560;-69
2022/05/24 10:18:08;;;;;;;3.60;1.50;;;;;28.80;96932.20;;;;110724;1254;41728;-72
2022/05/24 10:21:13;;;;;;;3.90;1.70;;;;;28.14;96935.80;;;;110747;1252;41151;-75
2022/05/24 10:24:03;;;;;;;3.40;1.60;;;;;27.32;96942.60;;;;110743;1253;41142;-72
2022/05/24 10:26:52;;;;;;;4.20;1.80;;;;;26.38;96943.00;;;;110650;1253;41245;-70
2022/05/24 10:29:33;;;;;;;5.10;1.80;;;;;26.20;96942.60;;;;110869;1251;41823;-76
2022/05/24 10:38:17;;;;;;;4.60;1.70;;;;;26.40;96939.00;;;;110687;1253;41169;-70
2022/05/24 10:38:17;;;;;;;3.20;1.50;;;;;26.52;96935.80;;;;110658;1254;41639;-78
2022/05/24 10:41:04;;;;;;;4.20;1.80;;;;;26.38;96930.60;;;;110724;1253;41377;-76
2022/05/24 10:44:02;;;;;;;2.30;1.30;;;;;26.08;96932.60;;;;110720;1251;41719;-71
2022/05/24 10:46:43;;;;;;;7.60;1.80;;;;;26.32;96926.60;;;;110728;1253;41260;-73
2022/05/24 10:49:19;;;;;;;2.70;1.50;;;;;26.58;96923.60;;;;110773;1251;41157;-69
2022/05/24 10:52:00;;;;;;;4.40;1.50;;;;;26.86;96920.20;;;;110757;1253;41245;-71
2022/05/24 10:54:36;;;;;;;6.40;1.60;;;;;27.76;96918.00;;;;110772;1253;41619;-74
2022/05/24 10:57:10;;;;;;;2.50;1.50;;;;;28.00;96918.20;;;;110734;1253;41915;-75
2022/05/24 10:59:46;;;;;;;3.80;1.60;;;;;28.20;96919.40;;;;110785;1249;41679;-74
2022/05/24 11:02:57;;;;;;;4.10;1.50;;;;;28.58;96915.00;;;;110801;1253;41172;-77
2022/05/24 11:05:36;;;;;;;3.80;1.40;;;;;29.10;96911.60;;;;110689;1254;41272;-70
2022/05/24 11:08:32;;;;;;;4.60;1.50;;;;;29.08;96907.80;;;;110662;1253;41184;-71
2022/05/24 11:11:11;;;;;;;2.90;1.50;;;;;29.28;96907.20;;;;110586;1254;41145;-71
2022/05/24 11:13:57;;;;;;;2.70;1.40;;;;;29.34;96904.40;;;;110899;1251;41245;-72
2022/05/24 11:16:47;;;;;;;2.70;1.40;;;;;30.14;96899.40;;;;110801;1251;41157;-73
2022/05/24 11:19:18;;;;;;;;;;;;;31.20;96901.40;;;;110844;1253;41603;-73
2022/05/24 11:22:04;;;;;;;3.30;1.70;;;;;31.44;96895.80;;;;110888;1250;41163;-73
2022/05/24 11:24:50;;;;;;;3.80;1.30;;;;;31.26;96903.00;;;;110872;1250;41169;-75
2022/05/24 11:27:28;;;;;;;3.90;1.70;;;;;31.66;96902.20;;;;110733;1252;42450;-73
2022/05/24 11:30:09;;;;;;;3.80;1.70;;;;;31.60;96905.00;;;;110762;1251;41711;-77
2022/05/24 11:32:44;;;;;;;4.70;1.60;;;;;31.16;96914.00;;;;110933;1251;41192;-76
2022/05/24 11:35:18;;;;;;;2.80;1.40;;;;;30.60;96912.20;;;;110744;1253;41211;-75
2022/05/24 11:37:53;;;;;;;2.30;1.20;;;;;31.04;96902.80;;;;110827;1252;41277;-75
2022/05/24 11:40:32;;;;;;;3.70;1.40;;;;;32.02;96893.00;;;;110870;1251;41138;-74
2022/05/24 11:43:10;;;;;;;4.40;1.50;;;;;32.98;96885.80;;;;110760;1253;41218;-77
2022/05/24 11:45:59;;;;;;;3.60;1.60;;;;;33.88;96882.60;;;;110742;1252;41164;-75
2022/05/24 11:48:42;;;;;;;4.00;1.60;;;;;34.16;96876.80;;;;110850;1252;41620;-72
2022/05/24 11:51:30;;;;;;;4.30;1.50;;;;;34.28;96874.00;;;;110737;1253;41201;-74
2022/05/24 11:54:01;;;;;;;3.50;1.60;;;;;33.16;96873.40;;;;110774;1252;42688;-77
2022/05/24 11:56:30;;;;;;;5.90;1.80;;;;;32.58;96879.80;;;;110709;1252;41284;-73
2022/05/24 11:59:14;;;;;;;3.00;1.50;;;;;32.12;96882.60;;;;110735;1254;41314;-78
2022/05/24 12:01:45;;;;;;;3.10;1.50;;;;;31.74;96880.00;;;;110726;1253;41391;-74
2022/05/24 12:10:11;;;;;;;2.80;1.50;;;;;32.12;96875.40;;;;110872;1251;43013;-77
2022/05/24 12:12:56;;;;;;;3.30;1.60;;;;;31.54;96874.80;;;;110663;1253;41461;-70
2022/05/24 12:15:50;;;;;;;2.80;1.30;;;;;30.56;96883.80;;;;110702;1251;41264;-70
2022/05/24 12:18:24;;;;;;;3.90;1.50;;;;;29.60;96883.60;;;;110694;1252;41270;-71
2022/05/24 12:20:56;;;;;;;3.70;1.40;;;;;29.30;96893.80;;;;110591;1254;41171;-69
2022/05/24 12:23:34;;;;;;;1.90;1.20;;;;;29.20;96893.20;;;;110710;1254;41159;-71
2022/05/24 12:26:12;;;;;;;1.50;1.20;;;;;29.20;96893.00;;;;110901;1251;41163;-68
2022/05/24 12:28:50;;;;;;;1.60;1.10;;;;;29.40;96896.40;;;;110737;1252;41274;-70
2022/05/24 12:31:19;;;;;;;3.00;1.40;;;;;29.60;96887.80;;;;110751;1254;41273;-72
2022/05/24 12:34:04;;;;;;;2.60;1.50;;;;;29.58;96891.20;;;;110871;1251;41391;-70
2022/05/24 12:36:43;;;;;;;6.40;1.70;;;;;29.40;96894.40;;;;110682;1253;41722;-72
2022/05/24 12:39:35;;;;;;;3.10;1.60;;;;;29.00;96893.00;;;;110741;1251;41420;-70
2022/05/24 12:42:13;;;;;;;2.90;1.30;;;;;28.60;96899.80;;;;110883;1252;41289;-70
2022/05/24 12:44:48;;;;;;;3.80;1.60;;;;;28.50;96897.00;;;;110808;1251;42530;-74
2022/05/24 12:47:21;;;;;;;4.90;1.70;;;;;28.30;96898.40;;;;110596;1253;41175;-71
2022/05/24 12:49:54;;;;;;;7.20;1.70;;;;;28.10;96898.40;;;;110675;1253;41262;-71
2022/05/24 12:52:29;;;;;;;3.30;1.50;;;;;27.62;96906.40;;;;110702;1253;41264;-69
2022/05/24 12:55:03;;;;;;;3.00;1.50;;;;;27.20;96905.40;;;;110488;1255;41166;-75
2022/05/24 12:57:38;;;;;;;2.70;1.50;;;;;26.90;96903.00;;;;110695;1252;42272;-71
2022/05/24 13:00:19;;;;;;;4.40;1.50;;;;;26.90;96901.60;;;;110893;1251;42990;-70
2022/05/24 13:02:50;;;;;;;3.80;1.60;;;;;26.60;96896.80;;;;110695;1253;41380;-76
2022/05/24 13:05:31;;;;;;;2.60;1.50;;;;;26.46;96895.40;;;;110726;1251;41136;-71
2022/05/24 13:08:01;;;;;;;2.50;1.40;;;;;26.38;96897.00;;;;110692;1253;41723;-71
2022/05/24 13:10:39;;;;;;;3.50;1.40;;;;;26.40;96900.20;;;;110862;1251;42432;-74
2022/05/24 13:13:15;;;;;;;3.50;1.50;;;;;26.70;96903.00;;;;110638;1253;41239;-70
2022/05/24 13:15:52;;;;;;;3.30;1.60;;;;;26.90;96902.60;;;;110882;1251;41186;-70
2022/05/24 13:18:33;;;;;;;3.00;1.50;;;;;26.70;96903.60;;;;110858;1251;40985;-73
2022/05/24 13:21:06;;;;;;;7.50;1.70;;;;;26.50;96912.40;;;;110653;1251;41191;-75
2022/05/24 13:23:42;;;;;;;3.70;1.60;;;;;26.40;96909.20;;;;110756;1251;41605;-68
2022/05/24 13:26:15;;;;;;;3.70;1.50;;;;;26.20;96908.40;;;;110708;1252;41155;-70
2022/05/24 13:28:52;;;;;;;3.90;1.40;;;;;26.00;96909.60;;;;110728;1253;41151;-75
2022/05/24 13:34:17;;;;;;;4.00;1.70;;;;;25.40;96919.40;;;;110849;1250;41140;-74